Terminal Aerodrome Forecast
Issued by NWS

Home | Current Version | Previous Version | Text Only | Print | Product List | Glossary On
Versions: 1 2 3 4 5 6 7 8 9 10 11 12 13 14 15 16 17 18 19 20 21 22 23 24 25 26 27 28 29 30
000
FTUS45 KGJT 201738
TAFVEL
TAF
KVEL 201738Z 2018/2118 10004KT P6SM SKC
     FM210500 26006KT P6SM FEW110 SCT200
     FM211100 32005KT P6SM FEW110 FEW250
     FM211600 20006KT P6SM FEW090 FEW250=

USA.gov is the U.S. government's official web portal to all federal, state and local government web resources and services.